Time;durP1;ratioP1;P1;durP2;ratioP2;P2;SDS_P1;SDS_P2;PMS_P1;PMS_P2;Temp;Humidity;BMP_temperature;BMP_pressure;BME280_temperature;BME280_humidity;BME280_pressure;Samples;Min_cycle;Max_cycle;Signal;HPM_P1;HPM_P2
2023/10/10 00:02:18;;;;;;;12.65;5.75;;;;;;;;;;5053523;28;20037;-65
2023/10/10 00:04:45;;;;;;;10.85;5.72;;;;;;;;;;5053114;28;20368;-65
2023/10/10 00:07:14;;;;;;;9.43;4.85;;;;;;;;;;5053423;28;20196;-65
2023/10/10 00:09:44;;;;;;;8.27;4.80;;;;;;;;;;5053226;28;20124;-65
2023/10/10 00:12:17;;;;;;;15.23;5.30;;;;;;;;;;5053000;28;20497;-65
2023/10/10 00:14:46;;;;;;;13.10;5.63;;;;;;;;;;5053089;28;20518;-65
2023/10/10 00:17:14;;;;;;;11.02;4.85;;;;;;;;;;5053160;28;20098;-65
2023/10/10 00:19:54;;;;;;;9.25;5.18;;;;;;;;;;5052859;28;20518;-65
2023/10/10 00:22:27;;;;;;;9.57;5.00;;;;;;;;;;5053001;28;20108;-65
2023/10/10 00:24:53;;;;;;;8.07;5.28;;;;;;;;;;5052990;28;20041;-65
2023/10/10 00:27:23;;;;;;;13.43;5.45;;;;;;;;;;5052358;28;20044;-65
2023/10/10 00:29:49;;;;;;;10.75;5.47;;;;;;;;;;5053069;28;20048;-65
2023/10/10 00:32:22;;;;;;;8.85;4.57;;;;;;;;;;5052895;28;20415;-65
2023/10/10 00:34:49;;;;;;;10.82;5.05;;;;;;;;;;5034298;28;20045;-65
2023/10/10 00:37:17;;;;;;;10.77;5.28;;;;;;;;;;5034263;28;20033;-65
2023/10/10 00:39:52;;;;;;;9.02;5.10;;;;;;;;;;5052756;28;20084;-65
2023/10/10 00:42:36;;;;;;;10.52;4.60;;;;;;;;;;5052180;28;20048;-65
2023/10/10 00:45:04;;;;;;;9.57;5.22;;;;;;;;;;5052566;28;20049;-65
2023/10/10 00:47:38;;;;;;;8.55;4.85;;;;;;;;;;5052633;28;20049;-65
2023/10/10 00:50:08;;;;;;;7.95;4.80;;;;;;;;;;5052355;28;20519;-65
2023/10/10 00:52:36;;;;;;;9.85;5.13;;;;;;;;;;5052280;28;20114;-65
2023/10/10 00:55:04;;;;;;;10.88;4.43;;;;;;;;;;5052175;28;20055;-65
2023/10/10 00:57:35;;;;;;;8.70;4.47;;;;;;;;;;5052076;28;20582;-65
2023/10/10 01:00:07;;;;;;;9.97;4.50;;;;;;;;;;5052468;28;20059;-65
2023/10/10 01:02:34;;;;;;;9.07;4.43;;;;;;;;;;5052242;28;20044;-65
2023/10/10 01:05:11;;;;;;;8.55;4.68;;;;;;;;;;5051955;28;20045;-65
2023/10/10 01:07:38;;;;;;;8.23;4.68;;;;;;;;;;5034432;28;20755;-65
2023/10/10 01:10:11;;;;;;;10.27;5.45;;;;;;;;;;5052245;28;20056;-65
2023/10/10 01:12:39;;;;;;;9.27;4.50;;;;;;;;;;5051694;28;20467;-65
2023/10/10 01:15:14;;;;;;;6.53;4.20;;;;;;;;;;5051631;28;20052;-65
2023/10/10 01:17:44;;;;;;;11.82;4.60;;;;;;;;;;5051713;28;20120;-65
2023/10/10 01:20:18;;;;;;;8.43;4.38;;;;;;;;;;5033780;28;20051;-65
2023/10/10 01:22:46;;;;;;;11.88;4.68;;;;;;;;;;5051950;28;20049;-65
2023/10/10 01:25:42;;;;;;;10.00;4.85;;;;;;;;;;5034048;28;20037;-65
2023/10/10 01:30:59;;;;;;;5.68;4.05;;;;;;;;;;5051742;28;20057;-65
2023/10/10 01:33:36;;;;;;;9.93;5.53;;;;;;;;;;5051507;28;20717;-65
2023/10/10 01:36:11;;;;;;;6.90;4.63;;;;;;;;;;5051691;28;20045;-65
2023/10/10 01:38:47;;;;;;;8.32;4.40;;;;;;;;;;5051614;28;20064;-65
2023/10/10 01:41:22;;;;;;;9.93;4.78;;;;;;;;;;5051011;28;20044;-65
2023/10/10 01:43:53;;;;;;;9.98;5.10;;;;;;;;;;5051627;28;20375;-65
2023/10/10 01:46:27;;;;;;;8.30;4.55;;;;;;;;;;5051465;28;20041;-65
2023/10/10 01:48:56;;;;;;;7.30;4.55;;;;;;;;;;5050390;28;20648;-65
2023/10/10 01:51:28;;;;;;;10.30;4.78;;;;;;;;;;5051497;28;20045;-65
2023/10/10 01:53:58;;;;;;;10.32;4.25;;;;;;;;;;5051123;28;20055;-65
2023/10/10 01:56:26;;;;;;;8.30;4.57;;;;;;;;;;5032755;28;20103;-65
2023/10/10 01:58:53;;;;;;;9.93;4.30;;;;;;;;;;5051430;28;20099;-65
2023/10/10 02:01:20;;;;;;;9.38;4.10;;;;;;;;;;5051066;28;20040;-65
2023/10/10 02:03:46;;;;;;;8.80;3.90;;;;;;;;;;5050982;28;20090;-65
2023/10/10 02:06:27;;;;;;;7.10;4.57;;;;;;;;;;5050891;28;20396;-65
2023/10/10 02:08:54;;;;;;;9.70;4.75;;;;;;;;;;5051025;28;20045;-65
2023/10/10 02:11:20;;;;;;;11.50;4.35;;;;;;;;;;5050831;28;20125;-65
2023/10/10 02:13:50;;;;;;;9.32;4.32;;;;;;;;;;5051309;28;20075;-65
2023/10/10 02:16:18;;;;;;;9.48;4.38;;;;;;;;;;5050856;28;20045;-65
2023/10/10 02:18:46;;;;;;;9.23;4.32;;;;;;;;;;5050706;28;20047;-65
2023/10/10 02:21:16;;;;;;;10.18;4.20;;;;;;;;;;5051145;28;20052;-65
2023/10/10 02:23:44;;;;;;;10.32;4.72;;;;;;;;;;5051047;28;20595;-65
2023/10/10 02:31:41;;;;;;;9.02;4.80;;;;;;;;;;5050977;28;20618;-65
2023/10/10 02:34:10;;;;;;;7.55;4.22;;;;;;;;;;5050637;28;20045;-65
2023/10/10 02:36:40;;;;;;;7.05;4.60;;;;;;;;;;5050655;28;20519;-65
2023/10/10 02:39:56;;;;;;;9.35;4.95;;;;;;;;;;5051068;28;20040;-65
2023/10/10 02:42:00;;;;;;;8.00;4.72;;;;;;;;;;5042275;28;20615;-65
2023/10/10 02:44:38;;;;;;;6.88;5.15;;;;;;;;;;5050720;28;20121;-65
2023/10/10 02:47:04;;;;;;;7.72;4.30;;;;;;;;;;5050291;28;20124;-65
2023/10/10 02:49:30;;;;;;;7.68;5.10;;;;;;;;;;5050989;28;20040;-65
2023/10/10 02:51:57;;;;;;;11.40;5.00;;;;;;;;;;5050700;28;20053;-65
2023/10/10 02:54:28;;;;;;;12.68;5.68;;;;;;;;;;5050407;28;20041;-65
2023/10/10 02:56:58;;;;;;;7.63;5.20;;;;;;;;;;5032410;28;20045;-65
2023/10/10 02:59:38;;;;;;;11.50;5.30;;;;;;;;;;5050874;28;20505;-65
2023/10/10 03:02:18;;;;;;;10.85;5.93;;;;;;;;;;5054370;28;20502;-65
2023/10/10 03:05:06;;;;;;;10.05;7.22;;;;;;;;;;5036431;28;20402;-65
2023/10/10 03:07:32;;;;;;;18.45;6.63;;;;;;;;;;5054381;28;20044;-65
2023/10/10 03:12:41;;;;;;;11.88;7.20;;;;;;;;;;5054599;28;20465;-65
2023/10/10 03:17:52;;;;;;;14.18;7.13;;;;;;;;;;5053887;28;20538;-65
2023/10/10 03:28:29;;;;;;;9.48;6.85;;;;;;;;;;5054230;28;20391;-65
2023/10/10 03:31:08;;;;;;;11.07;6.43;;;;;;;;;;5054122;28;20188;-65
2023/10/10 03:33:45;;;;;;;10.82;6.85;;;;;;;;;;5053552;28;20049;-65
2023/10/10 05:25:52;;;;;;;27.05;16.58;;;;;;;;;;5051991;28;20102;-65
2023/10/10 05:28:20;;;;;;;28.98;17.48;;;;;;;;;;5051862;28;20049;-65
2023/10/10 05:30:46;;;;;;;30.38;17.35;;;;;;;;;;5051515;28;20041;-65
2023/10/10 05:33:13;;;;;;;27.00;17.08;;;;;;;;;;5051635;28;20080;-65
2023/10/10 05:35:49;;;;;;;27.33;17.60;;;;;;;;;;5051716;28;20124;-65
2023/10/10 05:38:16;;;;;;;28.48;16.30;;;;;;;;;;5051361;28;20052;-65
2023/10/10 05:40:43;;;;;;;28.10;17.45;;;;;;;;;;5051278;28;20132;-65
2023/10/10 05:43:13;;;;;;;29.70;17.73;;;;;;;;;;5051299;28;20040;-66
2023/10/10 05:45:39;;;;;;;26.73;17.30;;;;;;;;;;5050844;28;20049;-66
2023/10/10 05:48:05;;;;;;;27.55;17.48;;;;;;;;;;5049448;28;20080;-64
2023/10/10 05:50:35;;;;;;;31.00;17.70;;;;;;;;;;5050692;28;20049;-65
2023/10/10 05:53:03;;;;;;;28.05;16.40;;;;;;;;;;5049871;28;20072;-63
2023/10/10 05:55:37;;;;;;;30.65;17.35;;;;;;;;;;5050440;28;20041;-64
2023/10/10 05:58:03;;;;;;;27.85;16.83;;;;;;;;;;5050659;28;20033;-64
2023/10/10 06:00:36;;;;;;;28.65;18.05;;;;;;;;;;5050485;28;20048;-64
2023/10/10 06:03:03;;;;;;;24.70;17.05;;;;;;;;;;5051104;28;20073;-65
2023/10/10 06:05:29;;;;;;;29.98;18.35;;;;;;;;;;5050887;28;20045;-65
2023/10/10 06:07:58;;;;;;;32.65;18.13;;;;;;;;;;5050724;28;20537;-63
2023/10/10 06:10:28;;;;;;;29.52;18.75;;;;;;;;;;5050774;28;20041;-64
2023/10/10 06:12:57;;;;;;;29.17;17.58;;;;;;;;;;5050448;28;20048;-64
2023/10/10 06:15:23;;;;;;;25.83;17.55;;;;;;;;;;5050493;28;20134;-64
2023/10/10 06:17:51;;;;;;;30.05;18.05;;;;;;;;;;5050411;28;20522;-64
2023/10/10 06:20:21;;;;;;;26.52;16.00;;;;;;;;;;5049929;28;20041;-64
2023/10/10 06:22:48;;;;;;;30.52;18.23;;;;;;;;;;5050603;28;20037;-64
2023/10/10 06:25:17;;;;;;;25.98;17.65;;;;;;;;;;5050508;28;20048;-64
2023/10/10 06:27:54;;;;;;;29.63;19.60;;;;;;;;;;5032847;28;20562;-64
2023/10/10 06:30:20;;;;;;;34.65;19.15;;;;;;;;;;5050414;28;20372;-64
2023/10/10 06:32:49;;;;;;;27.92;18.63;;;;;;;;;;5050351;28;20471;-65
2023/10/10 06:37:42;;;;;;;33.22;18.70;;;;;;;;;;5054460;28;20041;-64
2023/10/10 06:40:09;;;;;;;29.83;18.70;;;;;;;;;;5054417;28;20645;-64
2023/10/10 06:42:36;;;;;;;27.75;19.05;;;;;;;;;;5054630;28;20553;-64
2023/10/10 06:45:08;;;;;;;36.15;20.95;;;;;;;;;;5054057;28;20049;-64
2023/10/10 06:47:43;;;;;;;32.90;20.35;;;;;;;;;;5036710;28;20040;-63
2023/10/10 06:50:12;;;;;;;38.05;22.90;;;;;;;;;;5054627;28;20048;-63
2023/10/10 06:52:39;;;;;;;37.42;23.08;;;;;;;;;;5053716;28;21831;-62
2023/10/10 06:55:12;;;;;;;36.88;22.23;;;;;;;;;;5054291;28;20102;-62
2023/10/10 06:57:38;;;;;;;41.25;23.67;;;;;;;;;;5054063;28;20064;-63
2023/10/10 07:00:21;;;;;;;46.40;25.08;;;;;;;;;;5053568;28;20041;-64
2023/10/10 07:02:49;;;;;;;46.30;25.75;;;;;;;;;;5054271;28;20072;-63
2023/10/10 07:05:15;;;;;;;47.83;26.98;;;;;;;;;;5053665;28;20115;-63
2023/10/10 07:07:44;;;;;;;44.17;25.73;;;;;;;;;;5053524;28;20049;-64
2023/10/10 07:10:24;;;;;;;43.47;25.75;;;;;;;;;;5054017;28;20041;-63
2023/10/10 07:12:50;;;;;;;44.95;26.58;;;;;;;;;;5028449;28;20068;-63
2023/10/10 07:15:16;;;;;;;44.53;24.65;;;;;;;;;;5040045;28;20476;-63
2023/10/10 07:17:42;;;;;;;41.05;24.13;;;;;;;;;;5056154;28;20048;-63
2023/10/10 07:22:35;;;;;;;39.95;25.02;;;;;;;;;;5052439;28;20121;-63
2023/10/10 07:25:07;;;;;;;44.53;26.30;;;;;;;;;;5052656;28;20060;-63
2023/10/10 07:27:39;;;;;;;40.85;24.20;;;;;;;;;;5053038;28;20072;-63
2023/10/10 07:30:16;;;;;;;49.58;30.90;;;;;;;;;;5049925;28;20075;-63
2023/10/10 07:32:48;;;;;;;58.45;32.47;;;;;;;;;;5052566;28;20094;-64
2023/10/10 07:35:24;;;;;;;64.55;34.95;;;;;;;;;;5034790;28;20099;-63
2023/10/10 07:37:52;;;;;;;66.60;35.42;;;;;;;;;;5052052;28;20040;-64
2023/10/10 07:40:20;;;;;;;71.32;38.80;;;;;;;;;;5052483;28;20476;-62
2023/10/10 07:42:58;;;;;;;69.97;36.53;;;;;;;;;;5052376;28;20178;-62
2023/10/10 07:45:33;;;;;;;73.63;39.25;;;;;;;;;;5052313;28;20037;-63
2023/10/10 07:50:46;;;;;;;78.68;38.88;;;;;;;;;;5032615;28;20076;-63
2023/10/10 07:53:13;;;;;;;72.07;37.17;;;;;;;;;;5051040;28;20067;-63
2023/10/10 07:58:27;;;;;;;70.95;36.78;;;;;;;;;;5051524;28;20048;-63
2023/10/10 08:00:53;;;;;;;69.55;35.65;;;;;;;;;;5051609;28;20095;-63
2023/10/10 08:03:19;;;;;;;71.93;36.47;;;;;;;;;;5052198;28;20444;-65
2023/10/10 08:05:48;;;;;;;75.63;36.72;;;;;;;;;;5051404;28;20051;-64
2023/10/10 08:08:18;;;;;;;68.82;35.65;;;;;;;;;;5051844;28;20045;-63
2023/10/10 08:10:49;;;;;;;69.78;35.80;;;;;;;;;;5051704;28;20545;-63
2023/10/10 08:13:15;;;;;;;72.13;36.28;;;;;;;;;;5051491;28;20106;-63
2023/10/10 08:15:49;;;;;;;76.28;38.38;;;;;;;;;;5051415;28;20729;-63
2023/10/10 08:18:40;;;;;;;72.05;38.80;;;;;;;;;;5049594;28;20047;-63
2023/10/10 08:23:30;;;;;;;77.72;40.03;;;;;;;;;;5052042;28;20037;-61
2023/10/10 08:25:57;;;;;;;71.75;37.90;;;;;;;;;;5051002;28;20076;-62
2023/10/10 08:28:23;;;;;;;71.53;39.38;;;;;;;;;;5051123;28;20091;-62
2023/10/10 08:30:52;;;;;;;77.13;40.85;;;;;;;;;;5032548;28;20052;-61
2023/10/10 08:33:19;;;;;;;76.97;38.80;;;;;;;;;;5046907;28;20055;-62
2023/10/10 08:35:46;;;;;;;75.55;38.60;;;;;;;;;;5048024;28;20099;-67
2023/10/10 08:38:19;;;;;;;75.13;40.22;;;;;;;;;;5026668;28;20049;-63
2023/10/10 08:40:48;;;;;;;76.05;38.50;;;;;;;;;;5045118;28;20128;-62
2023/10/10 08:43:14;;;;;;;76.32;39.47;;;;;;;;;;5046717;28;20033;-62
2023/10/10 08:45:43;;;;;;;73.65;40.80;;;;;;;;;;5043860;28;20044;-62
2023/10/10 08:48:15;;;;;;;77.30;40.42;;;;;;;;;;5050510;28;20122;-63
2023/10/10 08:50:42;;;;;;;77.80;40.08;;;;;;;;;;5045001;28;20094;-63
2023/10/10 08:53:14;;;;;;;76.70;40.65;;;;;;;;;;5048824;28;20061;-61
2023/10/10 08:55:40;;;;;;;;;;;;;;;;;;5051103;28;20087;-63
2023/10/10 08:58:07;;;;;;;77.43;38.33;;;;;;;;;;5049080;28;20359;-62
2023/10/10 09:00:34;;;;;;;73.55;40.53;;;;;;;;;;5049360;28;20040;-62
2023/10/10 09:03:00;;;;;;;80.10;40.35;;;;;;;;;;5046335;28;20045;-62
2023/10/10 09:05:29;;;;;;;77.65;39.60;;;;;;;;;;5045460;28;20373;-61
2023/10/10 09:08:05;;;;;;;71.53;39.35;;;;;;;;;;5049270;28;20075;-62
2023/10/10 09:10:39;;;;;;;75.20;38.40;;;;;;;;;;5046366;28;20136;-62
2023/10/10 09:13:07;;;;;;;69.10;38.05;;;;;;;;;;5038765;28;20051;-61
2023/10/10 09:15:34;;;;;;;75.25;40.67;;;;;;;;;;5042253;28;20041;-64
2023/10/10 09:18:17;;;;;;;77.20;39.83;;;;;;;;;;5041400;28;20042;-64
2023/10/10 09:20:45;;;;;;;;;;;;;;;;;;5030225;28;20124;-62
2023/10/10 09:23:38;;;;;;;73.82;40.38;;;;;;;;;;5022309;28;19921;-63
2023/10/10 09:26:29;;;;;;;73.85;38.63;;;;;;;;;;5049936;28;20060;-64
2023/10/10 09:28:59;;;;;;;74.75;40.03;;;;;;;;;;5024263;28;20049;-63
2023/10/10 09:31:26;;;;;;;73.57;38.90;;;;;;;;;;5047530;28;20072;-62
2023/10/10 09:33:57;;;;;;;68.97;38.17;;;;;;;;;;5048692;28;20446;-64
2023/10/10 09:36:27;;;;;;;68.82;37.13;;;;;;;;;;5046153;28;20175;-63
2023/10/10 09:38:55;;;;;;;70.95;38.95;;;;;;;;;;5049280;28;20120;-63
2023/10/10 09:41:37;;;;;;;68.35;37.45;;;;;;;;;;5046008;28;20163;-63
2023/10/10 09:49:43;;;;;;;62.15;35.60;;;;;;;;;;5045137;28;20044;-63
2023/10/10 09:55:07;;;;;;;66.28;37.42;;;;;;;;;;5046391;28;20056;-63
2023/10/10 09:57:34;;;;;;;60.25;34.58;;;;;;;;;;5042042;28;20559;-63
2023/10/10 10:00:06;;;;;;;65.35;35.35;;;;;;;;;;5051982;28;20854;-64
2023/10/10 10:02:43;;;;;;;64.10;34.72;;;;;;;;;;5048326;28;20049;-63
2023/10/10 10:05:17;;;;;;;59.78;33.13;;;;;;;;;;5041790;28;20041;-63
2023/10/10 10:08:05;;;;;;;62.00;32.85;;;;;;;;;;5042512;28;20048;-62
2023/10/10 10:10:35;;;;;;;55.60;32.30;;;;;;;;;;5042746;28;20043;-62
2023/10/10 10:13:21;;;;;;;56.53;33.28;;;;;;;;;;5049103;28;20442;-62
2023/10/10 10:16:09;;;;;;;54.30;30.45;;;;;;;;;;5039586;28;20096;-62
2023/10/10 10:18:45;;;;;;;51.42;29.35;;;;;;;;;;5047726;28;20063;-63
2023/10/10 10:21:24;;;;;;;50.20;28.27;;;;;;;;;;5045224;28;20045;-63
2023/10/10 10:27:12;;;;;;;50.58;27.95;;;;;;;;;;4992198;28;20057;-62
2023/10/10 10:29:42;;;;;;;51.42;26.80;;;;;;;;;;5042011;28;20393;-65
2023/10/10 10:32:10;;;;;;;45.78;25.17;;;;;;;;;;5036195;28;20037;-63
2023/10/10 10:34:45;;;;;;;41.65;23.95;;;;;;;;;;5048008;28;20048;-63
2023/10/10 10:37:20;;;;;;;40.35;24.05;;;;;;;;;;5048441;28;20128;-63
2023/10/10 10:42:52;;;;;;;37.67;21.45;;;;;;;;;;4964264;28;20069;-63
2023/10/10 10:45:26;;;;;;;41.45;22.20;;;;;;;;;;5013894;28;20487;-63
2023/10/10 10:48:01;;;;;;;35.63;20.13;;;;;;;;;;5048740;28;20103;-64
2023/10/10 10:50:28;;;;;;;33.53;20.58;;;;;;;;;;5048919;28;20037;-64
2023/10/10 10:53:06;;;;;;;39.88;20.95;;;;;;;;;;5048662;28;20063;-64
2023/10/10 10:55:39;;;;;;;34.90;20.20;;;;;;;;;;5022355;28;20572;-63
2023/10/10 10:58:20;;;;;;;33.83;20.27;;;;;;;;;;5043578;28;20040;-64
2023/10/10 11:03:23;;;;;;;33.40;20.13;;;;;;;;;;5048306;28;20052;-64
2023/10/10 11:05:53;;;;;;;34.35;19.25;;;;;;;;;;5044207;28;20095;-65
2023/10/10 11:09:30;;;;;;;36.95;21.48;;;;;;;;;;5048599;28;20480;-63
2023/10/10 11:16:47;;;;;;;31.15;19.75;;;;;;;;;;5047548;28;20056;-62
2023/10/10 11:21:56;;;;;;;30.58;19.33;;;;;;;;;;5047416;28;20044;-62
2023/10/10 11:24:26;;;;;;;33.53;20.30;;;;;;;;;;5042172;28;20103;-64
2023/10/10 11:29:44;;;;;;;35.08;20.67;;;;;;;;;;5049596;28;20052;-65
2023/10/10 11:32:15;;;;;;;28.92;19.05;;;;;;;;;;5027088;28;20123;-65
2023/10/10 11:34:44;;;;;;;33.50;19.83;;;;;;;;;;5049557;28;20041;-64
2023/10/10 11:37:14;;;;;;;32.67;18.90;;;;;;;;;;5051509;28;20144;-65
2023/10/10 11:39:47;;;;;;;32.92;17.48;;;;;;;;;;5049896;28;20520;-66
2023/10/10 11:42:28;;;;;;;32.80;19.08;;;;;;;;;;5048419;28;20475;-65
2023/10/10 11:45:01;;;;;;;34.08;18.17;;;;;;;;;;5046863;28;20049;-65
2023/10/10 11:47:27;;;;;;;29.58;19.88;;;;;;;;;;5027822;28;20041;-65
2023/10/10 11:50:00;;;;;;;32.45;19.55;;;;;;;;;;5051333;28;20442;-64
2023/10/10 11:52:27;;;;;;;33.38;19.15;;;;;;;;;;5047615;28;20120;-65
2023/10/10 11:55:07;;;;;;;33.58;19.63;;;;;;;;;;5042350;28;20053;-66
2023/10/10 11:57:34;;;;;;;28.63;17.40;;;;;;;;;;5048939;28;20048;-65
2023/10/10 12:00:07;;;;;;;30.23;17.23;;;;;;;;;;5045154;28;20045;-65
2023/10/10 12:02:43;;;;;;;29.13;16.60;;;;;;;;;;5041945;28;20407;-64
2023/10/10 12:07:54;;;;;;;29.17;16.15;;;;;;;;;;5047628;28;20086;-65
2023/10/10 12:10:29;;;;;;;32.33;15.60;;;;;;;;;;5044836;28;20033;-65
2023/10/10 12:12:56;;;;;;;26.88;15.98;;;;;;;;;;5043225;28;20052;-65
2023/10/10 12:15:22;;;;;;;26.42;16.08;;;;;;;;;;5049377;28;20037;-63
2023/10/10 12:17:52;;;;;;;23.77;15.20;;;;;;;;;;5048402;28;20479;-64
2023/10/10 12:20:30;;;;;;;27.00;16.15;;;;;;;;;;5046222;28;20126;-65
2023/10/10 12:22:58;;;;;;;27.55;16.88;;;;;;;;;;5048470;28;20072;-64
2023/10/10 12:25:24;;;;;;;26.95;16.67;;;;;;;;;;5042390;28;20040;-66
2023/10/10 12:27:54;;;;;;;28.45;15.60;;;;;;;;;;5047483;28;20131;-64
2023/10/10 12:30:25;;;;;;;28.58;15.77;;;;;;;;;;5043293;28;20049;-67
2023/10/10 12:32:51;;;;;;;27.05;14.65;;;;;;;;;;5044588;28;20048;-67
2023/10/10 12:35:17;;;;;;;29.27;16.38;;;;;;;;;;5050589;28;20363;-66
2023/10/10 12:37:44;;;;;;;24.20;15.43;;;;;;;;;;5050499;28;20032;-66
2023/10/10 12:40:11;;;;;;;29.73;16.17;;;;;;;;;;5048084;28;20552;-67
2023/10/10 12:42:38;;;;;;;26.38;14.98;;;;;;;;;;5048324;28;20115;-64
2023/10/10 12:45:05;;;;;;;29.50;15.93;;;;;;;;;;5031248;28;20037;-64
2023/10/10 12:47:31;;;;;;;24.25;15.00;;;;;;;;;;5046677;28;20041;-64
2023/10/10 12:50:00;;;;;;;28.63;16.35;;;;;;;;;;5046560;28;20040;-64
2023/10/10 12:52:35;;;;;;;26.23;15.40;;;;;;;;;;5022019;28;20107;-64
2023/10/10 12:55:09;;;;;;;27.60;14.25;;;;;;;;;;5040865;28;20318;-64
2023/10/10 12:57:39;;;;;;;22.38;14.30;;;;;;;;;;5051061;28;20129;-64
2023/10/10 13:00:24;;;;;;;25.08;14.15;;;;;;;;;;5046235;28;20037;-64
2023/10/10 13:02:53;;;;;;;22.30;14.23;;;;;;;;;;5047702;28;20036;-63
2023/10/10 13:05:26;;;;;;;23.88;14.75;;;;;;;;;;5050850;28;20108;-63
2023/10/10 13:07:55;;;;;;;25.60;15.20;;;;;;;;;;5046396;28;20086;-64
2023/10/10 13:10:26;;;;;;;24.52;15.43;;;;;;;;;;5050724;28;20040;-63
2023/10/10 13:12:52;;;;;;;27.73;15.52;;;;;;;;;;5051073;28;20621;-64
2023/10/10 13:15:18;;;;;;;23.73;14.57;;;;;;;;;;5050972;28;20033;-64
2023/10/10 13:17:53;;;;;;;27.10;14.82;;;;;;;;;;5050402;28;20045;-64
2023/10/10 13:20:19;;;;;;;26.13;15.10;;;;;;;;;;5050623;28;20041;-61
2023/10/10 13:22:50;;;;;;;22.92;13.90;;;;;;;;;;5050600;28;20044;-63
2023/10/10 13:25:16;;;;;;;23.73;15.33;;;;;;;;;;5049245;28;20498;-63
2023/10/10 13:27:46;;;;;;;24.65;14.80;;;;;;;;;;5047492;28;20082;-63
2023/10/10 13:30:13;;;;;;;21.02;14.20;;;;;;;;;;5050619;28;20052;-64
2023/10/10 13:32:41;;;;;;;27.15;14.82;;;;;;;;;;5021013;28;20033;-64
2023/10/10 13:35:08;;;;;;;23.45;14.55;;;;;;;;;;5050421;28;20480;-64
2023/10/10 13:37:43;;;;;;;25.38;14.30;;;;;;;;;;5050908;28;20132;-65
2023/10/10 13:40:20;;;;;;;25.10;14.15;;;;;;;;;;5050132;28;20538;-64
2023/10/10 13:42:46;;;;;;;27.42;14.43;;;;;;;;;;5050271;28;20099;-64
2023/10/10 13:45:19;;;;;;;23.20;14.02;;;;;;;;;;5050494;28;20029;-64
2023/10/10 13:47:48;;;;;;;21.73;14.38;;;;;;;;;;5050040;28;20045;-64
2023/10/10 13:50:41;;;;;;;25.85;13.85;;;;;;;;;;5050310;28;20041;-64
2023/10/10 13:53:04;;;;;;;24.17;15.50;;;;;;;;;;5034373;28;20052;-63
2023/10/10 13:55:34;;;;;;;22.50;14.38;;;;;;;;;;5050212;28;20053;-62
2023/10/10 13:58:00;;;;;;;20.85;13.82;;;;;;;;;;5049886;28;20037;-63
2023/10/10 14:00:29;;;;;;;24.73;16.58;;;;;;;;;;5049992;28;20048;-62
2023/10/10 14:03:03;;;;;;;26.23;14.80;;;;;;;;;;5050122;28;20108;-64
2023/10/10 14:05:29;;;;;;;28.40;15.48;;;;;;;;;;5032362;28;20032;-65
2023/10/10 14:07:59;;;;;;;24.00;14.57;;;;;;;;;;5049101;28;20043;-64
2023/10/10 14:10:25;;;;;;;27.42;15.20;;;;;;;;;;5049909;28;20120;-63
2023/10/10 14:12:51;;;;;;;28.17;14.77;;;;;;;;;;5050174;28;20531;-64
2023/10/10 14:15:21;;;;;;;33.05;15.80;;;;;;;;;;5031744;28;20115;-64
2023/10/10 14:17:47;;;;;;;25.23;15.85;;;;;;;;;;5050012;28;20059;-64
2023/10/10 14:20:20;;;;;;;22.70;14.02;;;;;;;;;;5050731;28;20544;-64
2023/10/10 14:22:49;;;;;;;27.48;14.45;;;;;;;;;;5050076;28;20361;-64
2023/10/10 14:25:16;;;;;;;23.38;13.90;;;;;;;;;;5050320;28;20487;-64
2023/10/10 14:27:43;;;;;;;27.88;15.77;;;;;;;;;;5050807;28;20033;-65
2023/10/10 14:30:23;;;;;;;23.42;14.65;;;;;;;;;;5050686;28;20045;-63
2023/10/10 14:32:57;;;;;;;23.50;15.07;;;;;;;;;;5046996;28;20044;-64
2023/10/10 14:35:23;;;;;;;23.80;13.35;;;;;;;;;;5050560;28;20091;-64
2023/10/10 14:37:57;;;;;;;25.90;14.52;;;;;;;;;;5050424;28;20041;-64
2023/10/10 14:40:23;;;;;;;21.58;13.02;;;;;;;;;;5050641;28;20121;-64
2023/10/10 14:42:52;;;;;;;25.67;14.35;;;;;;;;;;5051013;28;20044;-64
2023/10/10 14:45:24;;;;;;;26.38;13.82;;;;;;;;;;5050292;28;20120;-64
2023/10/10 14:47:51;;;;;;;22.35;12.77;;;;;;;;;;5050958;28;20044;-64
2023/10/10 14:50:23;;;;;;;23.88;13.45;;;;;;;;;;5050947;28;20084;-64
2023/10/10 14:52:53;;;;;;;22.85;13.27;;;;;;;;;;5050324;28;20052;-64
2023/10/10 14:55:27;;;;;;;25.58;12.68;;;;;;;;;;5050640;28;20407;-64
2023/10/10 14:57:54;;;;;;;20.45;12.75;;;;;;;;;;5054605;28;20044;-64
2023/10/10 15:00:21;;;;;;;22.15;13.23;;;;;;;;;;5054583;28;20468;-64
2023/10/10 15:02:48;;;;;;;21.40;13.02;;;;;;;;;;5054790;28;20570;-64
2023/10/10 15:05:14;;;;;;;24.30;12.13;;;;;;;;;;5054713;28;20045;-64
2023/10/10 15:07:42;;;;;;;22.33;11.88;;;;;;;;;;5054356;28;20041;-64
2023/10/10 15:10:09;;;;;;;22.67;12.85;;;;;;;;;;5054704;28;20676;-64
2023/10/10 15:12:36;;;;;;;24.98;13.48;;;;;;;;;;5054627;28;20040;-64
2023/10/10 15:15:02;;;;;;;21.80;12.82;;;;;;;;;;5054093;28;20487;-64
2023/10/10 15:17:28;;;;;;;20.13;12.32;;;;;;;;;;5054097;28;20121;-64
2023/10/10 15:19:54;;;;;;;21.85;11.98;;;;;;;;;;5054466;28;20116;-64
2023/10/10 15:22:21;;;;;;;26.25;13.05;;;;;;;;;;5054175;28;20041;-64
2023/10/10 15:24:49;;;;;;;19.95;12.38;;;;;;;;;;5036536;28;20037;-64
2023/10/10 15:27:16;;;;;;;22.27;13.07;;;;;;;;;;5054409;28;20045;-64
2023/10/10 15:29:42;;;;;;;22.98;11.88;;;;;;;;;;5054029;28;20067;-64
2023/10/10 15:32:09;;;;;;;21.77;12.38;;;;;;;;;;5053918;28;20044;-64
2023/10/10 15:34:35;;;;;;;19.75;10.77;;;;;;;;;;5054256;28;20411;-64
2023/10/10 15:37:09;;;;;;;19.23;10.98;;;;;;;;;;5053646;28;20126;-64
2023/10/10 15:39:38;;;;;;;23.33;12.90;;;;;;;;;;5054068;28;20041;-64
2023/10/10 15:42:04;;;;;;;18.30;11.35;;;;;;;;;;5054188;28;20037;-64
2023/10/10 15:44:30;;;;;;;20.42;11.43;;;;;;;;;;5053730;28;20041;-64
2023/10/10 15:46:58;;;;;;;19.83;11.23;;;;;;;;;;5053997;28;20399;-64
2023/10/10 15:49:25;;;;;;;21.67;11.35;;;;;;;;;;5053809;28;20080;-64
2023/10/10 15:51:52;;;;;;;19.33;11.02;;;;;;;;;;5053370;28;20116;-64
2023/10/10 15:54:19;;;;;;;17.70;11.07;;;;;;;;;;5053885;28;20095;-64
2023/10/10 15:56:48;;;;;;;16.80;9.82;;;;;;;;;;5053568;28;20048;-64
2023/10/10 15:59:17;;;;;;;19.13;10.63;;;;;;;;;;5053438;28;20045;-63
2023/10/10 16:01:46;;;;;;;16.15;10.20;;;;;;;;;;5053761;28;20495;-63
2023/10/10 16:04:13;;;;;;;16.92;10.35;;;;;;;;;;5053814;28;20543;-63
2023/10/10 16:06:41;;;;;;;19.23;11.45;;;;;;;;;;5052580;28;20048;-63
2023/10/10 16:09:10;;;;;;;20.90;11.43;;;;;;;;;;5052720;28;20128;-63
2023/10/10 16:11:36;;;;;;;18.50;11.27;;;;;;;;;;5053619;28;20510;-63
2023/10/10 16:14:11;;;;;;;23.52;12.13;;;;;;;;;;5053243;28;20052;-63
2023/10/10 16:16:43;;;;;;;16.40;11.10;;;;;;;;;;5052980;28;20095;-63
2023/10/10 16:19:09;;;;;;;18.33;11.00;;;;;;;;;;5053365;28;20053;-63
2023/10/10 16:21:38;;;;;;;21.40;12.55;;;;;;;;;;5052936;28;20056;-63
2023/10/10 16:24:05;;;;;;;20.50;12.30;;;;;;;;;;5053348;28;20041;-63
2023/10/10 16:26:31;;;;;;;21.52;11.77;;;;;;;;;;5052983;28;20091;-63
2023/10/10 16:28:57;;;;;;;24.77;12.40;;;;;;;;;;5052956;28;20415;-63
2023/10/10 16:31:29;;;;;;;20.40;12.65;;;;;;;;;;5053064;28;20040;-63
2023/10/10 16:33:55;;;;;;;21.10;13.40;;;;;;;;;;5052893;28;20116;-63
2023/10/10 16:36:21;;;;;;;23.65;12.77;;;;;;;;;;5052401;28;20495;-63
2023/10/10 16:38:49;;;;;;;22.25;11.80;;;;;;;;;;5053059;28;20049;-63
2023/10/10 16:41:16;;;;;;;21.55;12.88;;;;;;;;;;5052699;28;20040;-63
2023/10/10 16:43:42;;;;;;;20.50;12.10;;;;;;;;;;5052558;28;20064;-63
2023/10/10 16:46:09;;;;;;;23.50;13.77;;;;;;;;;;5052946;28;20148;-63
2023/10/10 16:48:41;;;;;;;20.75;12.35;;;;;;;;;;5052673;28;20033;-63
2023/10/10 16:51:12;;;;;;;23.08;12.20;;;;;;;;;;5052247;28;20119;-63
2023/10/10 16:53:39;;;;;;;20.27;13.10;;;;;;;;;;5052437;28;20053;-63
2023/10/10 16:56:07;;;;;;;21.77;12.65;;;;;;;;;;5052502;28;20044;-63
2023/10/10 16:58:34;;;;;;;19.42;12.10;;;;;;;;;;5052269;28;20052;-63
2023/10/10 17:01:04;;;;;;;21.60;13.02;;;;;;;;;;5052565;28;20119;-63
2023/10/10 17:03:33;;;;;;;25.08;11.43;;;;;;;;;;5052579;28;20041;-64
2023/10/10 17:06:00;;;;;;;22.10;12.85;;;;;;;;;;5052037;28;20115;-64
2023/10/10 17:08:26;;;;;;;21.95;11.88;;;;;;;;;;5052484;28;20461;-64
2023/10/10 17:10:59;;;;;;;20.77;12.07;;;;;;;;;;5052501;28;20084;-64
2023/10/10 17:13:25;;;;;;;25.52;12.75;;;;;;;;;;5052074;28;20041;-64
2023/10/10 17:15:51;;;;;;;21.05;12.05;;;;;;;;;;5051965;28;20374;-64
2023/10/10 17:18:20;;;;;;;21.10;12.77;;;;;;;;;;5051673;28;20446;-64
2023/10/10 17:20:46;;;;;;;20.83;11.77;;;;;;;;;;5051856;28;20059;-64
2023/10/10 17:23:13;;;;;;;22.02;12.80;;;;;;;;;;5052221;28;20087;-64
2023/10/10 17:25:40;;;;;;;26.65;12.18;;;;;;;;;;5051825;28;20045;-64
2023/10/10 17:28:06;;;;;;;22.52;11.85;;;;;;;;;;5033631;28;20037;-64
2023/10/10 17:30:32;;;;;;;21.92;11.73;;;;;;;;;;5052008;28;20070;-64
2023/10/10 17:33:01;;;;;;;24.85;12.75;;;;;;;;;;5051802;28;20033;-64
2023/10/10 17:35:29;;;;;;;22.17;12.05;;;;;;;;;;5051584;28;20119;-64